< < Back
Terminal Aerodrome Forecast


Current Version              Previous Versions:   1  2  3  4  5  6  7  8  9  

Terminal Aerodrome Forecast

145
FTUS44 KHUN 062321
TAFHSV
TAF
KHSV 062321Z 0700/0724 20005KT P6SM SCT030
     FM070900 20003KT P6SM FEW015 SCT030 BKN090
     FM071400 23010KT P6SM SCT030 SCT150=

Latest METAR

995
SAUS80 KWBC 071100 RRB
MTRHSV
METAR KHSV 071053Z 13004KT 6SM BR FEW250 23/21 A3011 RMK AO2 SLP188
FIRST T02280206


USA.gov is the U.S. government's official web portal to all federal, state and local government web resources and services.